»·PEaware :: WAT425 KSBA-KSNA

WAT425 :: KSBA-KSNA

FLIGHT INFORMATION

Flight Status: Arrived
Operator:
Walker Air Transport
More flights by this operator :: More flights under this callsign
Pilot: Adam H. (32152)
Aircraft: CIRRUS SR-22 TURBO
(S22T)
More flights by this aircraft type
Origin: KSBA Santa Barbara Mun
United States
Destination: KSNA John Wayne-Orange Co
United States
More flights between these airports :: More routes between these airports
Route: VNY VPLQM ALBAS ENJAY
File this flight plan on PilotEdge
Remarks:
Altitude:
(Current/Filed)
8,500ft
Speed:
(Current/Filed)
150kts
Departed: 01-Dec-20 06:18 PM
Arrived: 01-Dec-20 08:08 PM
Distance/Time
Traveled:
108nm/1:50
Distance/Time
To Go:
Arrived

Flight Plot

Page will automatically refresh every two minutes.

Flight plan parsing failed; only flown route is shown


Map Options




Map Legend


Flown Route
Filed Route
Departure Airport
Arrival Airport
Navaid (VOR, NDB)
Fix

Horizontal Profiles

Position Reports

Time Latitude Longitude Heading Altitude Ground
Speed
01-Dec-20 17:58 34.432568 -119.835090 71 17ft 0kts
01-Dec-20 17:59 34.432568 -119.835090 71 17ft 0kts
01-Dec-20 18:00 34.432568 -119.835090 71 17ft 0kts
01-Dec-20 18:01 34.432568 -119.835090 71 17ft 0kts
01-Dec-20 18:02 34.432568 -119.835090 71 17ft 0kts
01-Dec-20 18:03 34.432568 -119.835090 71 17ft 0kts
01-Dec-20 18:04 34.432568 -119.835090 71 17ft 0kts
01-Dec-20 18:05 34.432568 -119.835090 71 17ft 0kts
01-Dec-20 18:06 34.432568 -119.835090 71 17ft 0kts
01-Dec-20 18:07 34.432568 -119.835090 71 17ft 0kts
01-Dec-20 18:08 34.432568 -119.835090 71 17ft 0kts
01-Dec-20 18:09 34.432568 -119.835090 71 17ft 0kts
01-Dec-20 18:10 34.432568 -119.835089 71 17ft 0kts
01-Dec-20 18:11 34.431940 -119.835334 182 16ft 6kts
01-Dec-20 18:12 34.429536 -119.835306 175 14ft 11kts
01-Dec-20 18:13 34.428654 -119.835222 176 14ft 0kts
01-Dec-20 18:14 34.428654 -119.835222 176 14ft 0kts
01-Dec-20 18:15 34.428654 -119.835222 176 14ft 0kts
01-Dec-20 18:16 34.428569 -119.835212 176 13ft 3kts
01-Dec-20 18:17 34.427511 -119.850223 265 130ft 108kts
01-Dec-20 18:18 34.426029 -119.890816 266 916ft 134kts
01-Dec-20 18:19 34.423437 -119.935556 265 2294ft 128kts
01-Dec-20 18:20 34.420750 -119.977966 265 3777ft 124kts
01-Dec-20 18:21 34.417235 -120.021726 266 4994ft 140kts
01-Dec-20 18:23 34.418146 -120.070683 284 6028ft 149kts
01-Dec-20 18:24 34.427492 -120.119782 321 7031ft 145kts
01-Dec-20 18:25 34.465149 -120.116273 11 8041ft 139kts
01-Dec-20 18:26 34.504893 -120.105152 11 8509ft 161kts
01-Dec-20 18:27 34.547470 -120.086526 55 8492ft 174kts
01-Dec-20 18:28 34.569409 -120.034792 81 8481ft 175kts
01-Dec-20 18:29 34.558408 -119.976697 96 8501ft 174kts
01-Dec-20 18:30 34.548631 -119.919389 96 8499ft 174kts
01-Dec-20 18:31 34.538811 -119.861712 96 8499ft 173kts
01-Dec-20 18:32 34.529058 -119.804426 96 8499ft 174kts
01-Dec-20 18:33 34.519306 -119.746955 96 8500ft 173kts
01-Dec-20 18:34 34.509549 -119.689461 96 8499ft 173kts
01-Dec-20 18:35 34.499932 -119.632063 96 8499ft 173kts
01-Dec-20 18:36 34.490522 -119.574741 96 8498ft 173kts
01-Dec-20 18:37 34.481047 -119.516969 96 8521ft 172kts
01-Dec-20 18:37 34.473291 -119.469380 96 8527ft 173kts
01-Dec-20 18:39 34.462600 -119.401943 96 8529ft 174kts
01-Dec-20 18:39 34.455020 -119.353953 96 8527ft 173kts
01-Dec-20 18:41 34.444766 -119.287249 96 8528ft 173kts
01-Dec-20 18:41 34.437381 -119.238855 96 8527ft 173kts
01-Dec-20 18:43 34.427487 -119.171738 96 8527ft 173kts
01-Dec-20 18:43 34.420462 -119.123688 96 8527ft 173kts
01-Dec-20 18:45 34.410968 -119.056593 96 8527ft 173kts
01-Dec-20 18:45 34.404202 -119.008599 96 8533ft 172kts
01-Dec-20 18:46 34.396276 -118.952357 96 8773ft 162kts
01-Dec-20 18:47 34.377029 -118.903461 111 9253ft 159kts
01-Dec-20 18:48 34.358784 -118.854095 110 9580ft 167kts
01-Dec-20 18:49 34.339480 -118.801204 110 9590ft 174kts
01-Dec-20 18:50 34.320034 -118.747146 110 9591ft 175kts
01-Dec-20 18:51 34.300613 -118.692921 110 9591ft 175kts
01-Dec-20 18:52 34.281276 -118.638868 110 9591ft 174kts
01-Dec-20 18:53 34.262033 -118.584982 110 9591ft 174kts
01-Dec-20 18:54 34.242952 -118.531451 110 9592ft 173kts
01-Dec-20 18:55 34.218865 -118.482178 153 9580ft 178kts
01-Dec-20 18:56 34.172516 -118.460394 155 9556ft 179kts
01-Dec-20 18:57 34.126981 -118.436400 153 9530ft 178kts
01-Dec-20 18:58 34.081734 -118.411431 152 9504ft 178kts
01-Dec-20 18:59 34.036910 -118.386385 152 9499ft 177kts
01-Dec-20 19:00 33.991994 -118.361216 152 9499ft 177kts
01-Dec-20 19:01 33.947229 -118.336204 153 9501ft 177kts
01-Dec-20 19:02 33.902480 -118.311161 153 9501ft 177kts
01-Dec-20 19:03 33.858161 -118.286593 153 9499ft 177kts
01-Dec-20 19:04 33.813300 -118.261578 153 9499ft 177kts
01-Dec-20 19:05 33.768747 -118.236738 153 9499ft 177kts
01-Dec-20 19:06 33.723761 -118.211663 153 9499ft 177kts
01-Dec-20 19:07 33.678893 -118.186739 153 9500ft 177kts
01-Dec-20 19:08 33.634004 -118.161801 153 9500ft 177kts
01-Dec-20 19:09 33.586655 -118.169259 191 9490ft 181kts
01-Dec-20 19:10 33.542736 -118.182095 191 8438ft 149kts
01-Dec-20 19:11 33.503269 -118.194001 191 7407ft 142kts
01-Dec-20 19:12 33.464753 -118.205634 191 6402ft 142kts
01-Dec-20 19:13 33.425995 -118.217142 191 5405ft 143kts
01-Dec-20 19:14 33.386534 -118.227965 191 4408ft 146kts
01-Dec-20 19:15 33.358007 -118.256331 249 4043ft 156kts
01-Dec-20 19:16 33.341239 -118.307556 249 4029ft 168kts
01-Dec-20 19:17 33.323958 -118.360407 249 4028ft 169kts
01-Dec-20 19:18 33.306654 -118.413328 249 4027ft 170kts
01-Dec-20 19:19 33.289363 -118.466816 249 4028ft 172kts
01-Dec-20 19:20 33.259424 -118.511125 220 4028ft 173kts
01-Dec-20 19:21 33.221424 -118.546903 216 4028ft 173kts
01-Dec-20 19:22 33.182379 -118.580711 215 4028ft 172kts
01-Dec-20 19:23 33.143048 -118.613832 215 4028ft 173kts
01-Dec-20 19:24 33.104359 -118.646110 214 4025ft 173kts
01-Dec-20 19:25 33.060659 -118.631153 151 4022ft 171kts
01-Dec-20 19:26 33.018177 -118.604987 151 4016ft 171kts
01-Dec-20 19:27 32.975472 -118.578681 151 4012ft 171kts
01-Dec-20 19:28 32.932827 -118.552373 151 4009ft 171kts
01-Dec-20 19:29 32.891209 -118.526698 151 4009ft 171kts
01-Dec-20 19:30 32.848592 -118.500368 151 4009ft 171kts
01-Dec-20 19:31 32.813022 -118.466697 110 4014ft 167kts
01-Dec-20 19:32 32.795685 -118.415203 102 4006ft 166kts
01-Dec-20 19:33 32.805848 -118.362645 73 4008ft 163kts
01-Dec-20 19:34 32.835117 -118.336688 341 4015ft 162kts
01-Dec-20 19:35 32.869767 -118.371583 321 4009ft 164kts
01-Dec-20 19:36 32.904689 -118.406640 321 4008ft 163kts
01-Dec-20 19:37 32.939816 -118.441915 321 4008ft 163kts
01-Dec-20 19:38 32.974662 -118.476888 321 4010ft 164kts
01-Dec-20 19:39 33.009607 -118.511993 321 4013ft 163kts
01-Dec-20 19:40 33.044577 -118.547163 321 4017ft 164kts
01-Dec-20 19:41 33.079368 -118.582156 321 4022ft 163kts
01-Dec-20 19:42 33.113771 -118.616757 321 4026ft 163kts
01-Dec-20 19:43 33.148679 -118.651870 321 4027ft 164kts
01-Dec-20 19:44 33.188463 -118.658315 27 4029ft 161kts
01-Dec-20 19:45 33.224354 -118.626532 41 4026ft 161kts
01-Dec-20 19:46 33.255821 -118.588134 46 4027ft 161kts
01-Dec-20 19:47 33.277218 -118.541430 59 4028ft 161kts
01-Dec-20 19:48 33.301779 -118.496003 54 4027ft 161kts
01-Dec-20 19:49 33.327891 -118.451897 53 4027ft 161kts
01-Dec-20 19:50 33.354135 -118.408091 53 4027ft 161kts
01-Dec-20 19:51 33.380396 -118.364292 53 4023ft 162kts
01-Dec-20 19:52 33.408149 -118.317901 53 3550ft 174kts
01-Dec-20 19:53 33.436468 -118.270554 53 3057ft 174kts
01-Dec-20 19:54 33.463709 -118.224971 53 3021ft 162kts
01-Dec-20 19:55 33.489947 -118.181018 53 3016ft 161kts
01-Dec-20 19:56 33.521014 -118.142221 41 3011ft 161kts
01-Dec-20 19:57 33.554567 -118.105443 41 3002ft 161kts
01-Dec-20 19:58 33.587644 -118.069173 41 2988ft 153kts
01-Dec-20 19:59 33.617187 -118.036702 41 2561ft 130kts
01-Dec-20 20:00 33.641669 -118.009893 41 2022ft 98kts
01-Dec-20 20:01 33.659154 -117.989284 57 2008ft 85kts
01-Dec-20 20:02 33.670788 -117.962467 61 1905ft 97kts
01-Dec-20 20:03 33.673844 -117.929427 86 1493ft 103kts
01-Dec-20 20:04 33.677395 -117.898703 60 1331ft 86kts
01-Dec-20 20:05 33.693145 -117.876926 41 1080ft 87kts
01-Dec-20 20:06 33.682505 -117.864461 205 181ft 89kts
01-Dec-20 20:07 33.674233 -117.870800 318 59ft 0kts
01-Dec-20 20:08 33.674608 -117.871717 304 59ft 3kts

Navigation Log

Ident Type
Flight plan parsing failed, navigation log unavailable